Daily Summary

Last 30 Days

Daily Data | America/Los_Angeles
as of 10/23/19 7:06 PM PDT
Date Daily Max Temp (°F) Daily Min Temp (°F) Daily Rain (In) Seasonal Rainfall (In) Daily Solar Rad (Cal/cm2) Daily ETo (in) Wind Spd (mph) Daily Max Wind (mph) Max Wind Dir (°) Dew Pt (°F) Max RH (%) Min RH (%) Leaf Wet (hrs) Soil Temp (°F) Soil Moist1 (%) Fuel Moisture (%) Max Fuel Moisture (%) Min Fuel Moisture (%) Bat Volt Min Day (V)
10/22/19 87.4 62.2 0.00 0.21 349 0.10 1.9 12.8 SE | 138 36.4 42 14 0.0 64.5 11.7 4 7 0 12.06
10/21/19 82.0 59.5 0.00 0.21 346 0.09 2.3 14.0 ENE | 62 39.7 57 21 0.0 64.7 11.7 5 9 0 12.03
10/20/19 76.4 51.8 0.00 0.21 342 0.09 2.1 11.1 NNW | 339 42.9 88 23 1.6 64.9 11.6 9 17 0 12.03
10/19/19 71.8 45.8 0.00 0.21 333 0.09 1.4 7.8 W | 260 44.8 85 44 0.7 65.0 11.7 9 14 0 12.02
10/18/19 71.8 46.4 0.00 0.21 346 0.09 1.8 12.0 WSW | 240 43.4 81 37 0.0 65.2 11.9 8 13 0 12.04
10/17/19 69.2 50.8 0.00 0.21 365 0.09 1.8 14.3 ENE | 57 40.6 88 21 1.1 65.3 12.1 7 13 0 12.04
10/16/19 73.1 52.8 0.00 0.21 258 0.07 1.0 6.3 W | 272 42.9 79 33 0.0 65.5 12.1 6 10 0 12.01
10/15/19 81.0 53.2 0.00 0.21 376 0.10 1.2 6.0 WNW | 293 37.9 56 16 0.0 65.7 12.1 6 10 0 12.05
10/14/19 72.5 48.7 0.00 0.21 381 0.10 1.3 7.3 WSW | 253 35.4 83 28 0.6 66.0 12.1 5 10 0 12.03
10/13/19 76.7 50.8 0.00 0.21 393 0.10 1.4 7.2 WSW | 240 29.5 42 15 0.0 66.1 12.2 4 7 0 12.04
10/12/19 82.9 55.4 0.00 0.21 391 0.10 1.5 8.9 WSW | 241 25.0 33 9 0.0 66.3 12.2 3 6 0 12.07
10/11/19 81.5 55.1 0.00 0.21 368 0.09 1.6 8.6 NW | 311 21.7 32 9 0.0 66.5 12.3 4 6 0 12.08
10/10/19 79.2 52.9 0.00 0.21 412 0.10 2.1 15.0 N | 349 16.9 30 11 0.0 66.6 12.4 3 6 0 12.06
10/9/19 75.7 47.2 0.00 0.21 412 0.10 1.9 14.3 E | 80 31.5 76 12 0.0 66.7 12.5 5 10 0 12.07
10/8/19 85.6 59.6 0.00 0.21 389 0.11 1.2 6.6 WSW | 249 37.3 48 18 0.0 66.7 12.7 4 7 0 12.10
10/7/19 87.7 62.9 0.00 0.21 417 0.11 1.5 9.0 W | 262 34.6 42 14 0.0 66.8 12.7 3 5 0 12.12
10/6/19 87.7 58.8 0.00 0.21 385 0.10 1.5 11.2 WSW | 246 28.1 35 10 0.0 67.0 12.7 3 6 0 12.08
10/5/19 82.4 55.5 0.00 0.21 417 0.11 1.9 8.5 WSW | 239 27.5 35 10 0.0 67.4 12.7 4 7 0 12.08
10/4/19 75.5 46.2 0.00 0.21 428 0.11 1.6 9.6 SSE | 147 32.4 62 19 0.0 67.7 12.7 6 11 0 12.07
10/3/19 75.0 46.6 0.00 0.21 423 0.11 1.6 11.2 WNW | 296 37.9 68 31 0.0 68.0 12.8 6 10 0 12.12
10/2/19 77.2 48.5 0.00 0.21 431 0.11 1.6 9.1 E | 80 34.9 60 20 0.0 68.4 12.9 6 11 0 12.08
10/1/19 70.2 43.1 0.00 0.21 436 0.11 1.6 9.2 NE | 49 35.7 82 20 0.0 68.8 12.9 8 16 0 12.04
9/30/19 67.2 44.6 0.01 0.21 354 0.09 1.5 9.8 SSE | 162 40.2 93 32 7.0 69.0 13.1 11 21 0 12.09
9/29/19 68.9 42.8 0.00 0.20 448 0.11 1.8 11.7 S | 190 39.5 83 31 0.0 69.2 13.1 9 16 0 12.13
9/28/19 67.4 46.1 0.00 0.20 434 0.11 1.8 12.4 SSW | 204 42.9 92 38 6.2 69.3 13.3 10 18 0 12.04
9/27/19 67.4 52.8 0.00 0.20 169 0.05 1.2 7.5 W | 267 55.0 92 69 7.1 69.2 13.5 11 15 7 12.07
9/26/19 74.5 58.2 0.00 0.20 205 0.06 1.4 11.7 SW | 234 55.3 90 51 0.9 69.2 13.6 7 10 0 12.11
9/25/19 97.1 65.4 0.00 0.20 418 0.13 1.5 8.2 W | 264 48.3 58 19 0.0 69.1 13.7 3 6 0 12.14
9/24/19 95.5 67.6 0.00 0.20 444 0.13 2.0 9.3 S | 188 41.0 41 13 0.0 69.2 13.8 3 7 0 12.13
9/23/19 84.0 56.0 0.00 0.20 450 0.13 1.6 13.4 SSW | 206 48.2 82 25 0.0 69.4 13.8 6 13 0 12.09
Max 97.1 67.6 0.01 - 450 0.13 2.3 15.0 - 55.3 93 69 7.1 69.4 13.8 11 21 7 12.14
Avg - - - - - - 1.6 - - 37.6 - - - 67.1 12.6 6 11 0 -
Min 67.2 42.8 0.00 - 169 0.05 1.0 6.0 - 16.9 30 9 0.0 64.5 11.6 3 5 0 12.01